createdAt,value
2023-03-14T00:03:13.261Z,98993.19
2023-03-14T00:06:34.604Z,99000.38
2023-03-14T00:09:56.267Z,99005.53
2023-03-14T00:13:19.149Z,99012.72
2023-03-14T00:16:40.387Z,99016.81
2023-03-14T00:20:05.932Z,98996.19
2023-03-14T00:23:27.392Z,98985.88
2023-03-14T00:26:49.131Z,98985.03
2023-03-14T00:30:12.932Z,98978.44
2023-03-14T00:33:35.575Z,98971.63
2023-03-14T00:36:58.409Z,98950.63
2023-03-14T00:40:20.331Z,98950.81
2023-03-14T00:43:44.436Z,98935.16
2023-03-14T00:47:07.356Z,98936.00
2023-03-14T00:50:28.789Z,98909.69
2023-03-14T00:53:50.153Z,98912.91
2023-03-14T00:57:11.961Z,98922.25
2023-03-14T01:00:33.294Z,98926.31
2023-03-14T01:03:57.298Z,98923.41
2023-03-14T01:07:19.150Z,98909.59
2023-03-14T01:10:41.582Z,98907.75
2023-03-14T01:14:04.186Z,98901.13
2023-03-14T01:17:25.922Z,98897.19
2023-03-14T01:20:48.693Z,98882.28
2023-03-14T01:24:13.291Z,98871.22
2023-03-14T01:27:35.572Z,98880.25
2023-03-14T01:30:57.035Z,98902.19
2023-03-14T01:34:18.563Z,98916.56
2023-03-14T01:37:41.588Z,98927.16
2023-03-14T01:41:10.114Z,98947.88
2023-03-14T01:44:50.051Z,98947.03
2023-03-14T01:48:11.570Z,98946.84
2023-03-14T01:51:38.323Z,98961.84
2023-03-14T01:55:06.087Z,98962.78
2023-03-14T01:58:32.960Z,98959.66
2023-03-14T02:01:57.438Z,98972.19
2023-03-14T02:05:22.487Z,98974.41
2023-03-14T02:08:50.538Z,98974.31
2023-03-14T02:12:19.335Z,98956.81
2023-03-14T02:15:50.314Z,98954.50
2023-03-14T02:19:52.294Z,98941.88
2023-03-14T02:23:37.577Z,98929.69
2023-03-14T02:27:13.104Z,98923.22
2023-03-14T02:30:39.140Z,98925.25
2023-03-14T02:34:01.975Z,98928.09
2023-03-14T02:37:27.589Z,98907.41
2023-03-14T02:40:49.572Z,98895.09
2023-03-14T02:44:12.724Z,98904.53
2023-03-14T02:47:34.450Z,98899.94
2023-03-14T02:50:58.847Z,98885.22
2023-03-14T02:54:22.618Z,98884.03
2023-03-14T02:57:45.455Z,98886.06
2023-03-14T03:01:09.405Z,98874.56
2023-03-14T03:04:30.952Z,98880.53
2023-03-14T03:07:52.690Z,98865.91
2023-03-14T03:11:14.486Z,98854.59
2023-03-14T03:14:36.148Z,98845.59
2023-03-14T03:18:00.771Z,98837.59
2023-03-14T03:21:24.331Z,98834.91
2023-03-14T03:24:46.368Z,98822.59
2023-03-14T03:28:08.922Z,98810.91
2023-03-14T03:31:33.454Z,98803.91
2023-03-14T03:34:56.334Z,98806.75
2023-03-14T03:38:18.754Z,98808.63
2023-03-14T03:41:41.547Z,98818.66
2023-03-14T03:45:04.896Z,98814.50
2023-03-14T03:48:28.836Z,98828.03
2023-03-14T03:51:53.094Z,98825.53
2023-03-14T03:55:15.155Z,98823.81
2023-03-14T03:58:39.771Z,98830.53
2023-03-14T04:02:01.972Z,98835.47
2023-03-14T04:05:23.763Z,98824.16
2023-03-14T04:08:53.512Z,98829.25
2023-03-14T04:12:38.166Z,98816.91
2023-03-14T04:16:12.239Z,98816.84
2023-03-14T04:19:33.681Z,98826.03
2023-03-14T04:22:55.533Z,98847.84
2023-03-14T04:26:18.890Z,98805.09
2023-03-14T04:29:40.399Z,98820.44
2023-03-14T04:33:02.257Z,98827.16
2023-03-14T04:36:26.079Z,98806.56
2023-03-14T04:39:48.254Z,98813.72
2023-03-14T04:43:21.928Z,98809.88
2023-03-14T04:46:47.593Z,98804.72
2023-03-14T04:50:10.052Z,98792.94
2023-03-14T04:53:33.053Z,98790.94
2023-03-14T04:56:55.475Z,98787.63
2023-03-14T05:00:19.711Z,98781.94
2023-03-14T05:04:03.644Z,98772.63
2023-03-14T05:07:44.064Z,98763.63
2023-03-14T05:11:17.263Z,98757.97
2023-03-14T05:14:56.123Z,98765.56
2023-03-14T05:18:34.731Z,98759.88
2023-03-14T05:22:07.451Z,98756.09
2023-03-14T05:25:51.257Z,98755.63
2023-03-14T05:29:27.958Z,98751.16
2023-03-14T05:33:00.477Z,98750.03
2023-03-14T05:36:38.458Z,98745.06
2023-03-14T05:40:18.372Z,98739.69
2023-03-14T05:43:58.611Z,98738.19
2023-03-14T05:47:34.121Z,98747.56
2023-03-14T05:51:14.544Z,98746.72
2023-03-14T05:54:56.065Z,98745.44
2023-03-14T05:58:44.036Z,98745.28
2023-03-14T06:02:16.327Z,98761.25
2023-03-14T06:05:48.297Z,98745.28
2023-03-14T06:09:10.008Z,98758.41
2023-03-14T06:12:35.993Z,98745.56
2023-03-14T06:15:57.732Z,98745.44
2023-03-14T06:19:25.627Z,98746.94
2023-03-14T06:22:47.668Z,98742.03
2023-03-14T06:26:10.071Z,98746.38
2023-03-14T06:29:35.194Z,98751.88
2023-03-14T06:32:57.874Z,98760.53
2023-03-14T06:36:19.613Z,98767.97
2023-03-14T06:39:44.904Z,98753.00
2023-03-14T06:43:15.113Z,98762.06
2023-03-14T06:46:40.636Z,98764.56
2023-03-14T06:50:02.218Z,98761.53
2023-03-14T06:53:25.057Z,98753.34
2023-03-14T06:56:47.439Z,98753.16
2023-03-14T07:00:10.864Z,98770.72
2023-03-14T07:03:34.126Z,98768.97
2023-03-14T07:06:56.506Z,98773.94
2023-03-14T07:10:19.546Z,98781.38
2023-03-14T07:13:41.007Z,98775.94
2023-03-14T07:17:03.294Z,98788.56
2023-03-14T07:20:27.160Z,98773.19
2023-03-14T07:23:48.675Z,98795.16
2023-03-14T07:27:11.810Z,98805.63
2023-03-14T07:30:33.983Z,98801.94
2023-03-14T07:33:57.578Z,98808.22
2023-03-14T07:37:25.191Z,98800.88
2023-03-14T07:40:51.330Z,98801.31
2023-03-14T07:44:22.308Z,98808.13
2023-03-14T07:47:43.920Z,98810.03
2023-03-14T07:51:05.367Z,98812.59
2023-03-14T07:54:28.693Z,98816.53
2023-03-14T07:57:50.312Z,98813.97
2023-03-14T08:01:11.625Z,98805.81
2023-03-14T08:04:33.330Z,98819.41
2023-03-14T08:07:55.068Z,98819.03
2023-03-14T08:11:18.292Z,98817.75
2023-03-14T08:14:39.938Z,98806.31
2023-03-14T08:18:01.284Z,98805.94
2023-03-14T08:21:22.466Z,98802.06
2023-03-14T08:24:43.813Z,98812.56
2023-03-14T08:28:06.870Z,98808.69
2023-03-14T08:31:28.843Z,98795.81
2023-03-14T08:34:50.251Z,98805.75
2023-03-14T08:38:12.148Z,98801.63
2023-03-14T08:41:33.628Z,98801.69
2023-03-14T08:44:56.683Z,98811.25
2023-03-14T08:48:18.484Z,98810.66
2023-03-14T08:51:40.222Z,98811.91
2023-03-14T08:55:01.472Z,98806.88
2023-03-14T08:58:23.717Z,98809.88
2023-03-14T09:01:46.304Z,98813.66
2023-03-14T09:05:08.803Z,98807.16
2023-03-14T09:08:30.194Z,98815.06
2023-03-14T09:11:51.805Z,98822.31
2023-03-14T09:15:13.337Z,98816.63
2023-03-14T09:18:36.126Z,98817.44
2023-03-14T09:21:57.806Z,98810.31
2023-03-14T09:25:19.258Z,98803.16
2023-03-14T09:28:40.764Z,98815.16
2023-03-14T09:32:02.239Z,98806.47
2023-03-14T09:35:25.621Z,98799.47
2023-03-14T09:38:47.127Z,98802.59
2023-03-14T09:42:15.107Z,98809.81
2023-03-14T09:45:41.286Z,98802.81
2023-03-14T09:49:02.957Z,98788.22
2023-03-14T09:52:30.571Z,98792.94
2023-03-14T09:55:53.221Z,98787.41
2023-03-14T09:59:15.863Z,98787.66
2023-03-14T10:02:38.530Z,98787.09
2023-03-14T10:06:00.480Z,98790.41
2023-03-14T10:09:26.420Z,98806.88
2023-03-14T10:12:49.503Z,98793.13
2023-03-14T10:16:11.132Z,98795.75
2023-03-14T10:19:32.602Z,98812.84
2023-03-14T10:22:54.253Z,98811.63
2023-03-14T10:26:20.509Z,98809.97
2023-03-14T10:29:55.067Z,98825.63
2023-03-14T10:33:24.230Z,98811.38
2023-03-14T10:36:45.841Z,98811.16
2023-03-14T10:40:15.279Z,98818.31
2023-03-14T10:43:39.985Z,98813.63
2023-03-14T10:47:03.953Z,98816.09
2023-03-14T10:50:28.173Z,98811.22
2023-03-14T10:53:52.259Z,98818.16
2023-03-14T10:57:13.897Z,98812.81
2023-03-14T11:00:36.972Z,98818.19
2023-03-14T11:04:03.448Z,98811.22
2023-03-14T11:07:29.549Z,98821.13
2023-03-14T11:10:56.233Z,98821.13
2023-03-14T11:14:26.525Z,98825.22
2023-03-14T11:18:04.284Z,98831.47
2023-03-14T11:21:34.382Z,98821.78
2023-03-14T11:25:16.868Z,98832.09
2023-03-14T11:28:41.255Z,98828.38
2023-03-14T11:32:06.625Z,98820.78
2023-03-14T11:35:35.589Z,98826.13
2023-03-14T11:38:59.306Z,98812.97
2023-03-14T11:42:22.932Z,98813.59
2023-03-14T11:45:46.500Z,98809.50
2023-03-14T11:49:13.978Z,98808.88
2023-03-14T11:52:42.199Z,98809.16
2023-03-14T11:56:05.259Z,98811.34
2023-03-14T11:59:31.531Z,98806.84
2023-03-14T12:02:59.708Z,98794.56
2023-03-14T12:06:26.551Z,98799.53
2023-03-14T12:09:50.328Z,98798.91
2023-03-14T12:13:14.000Z,98802.41
2023-03-14T12:16:41.111Z,98797.25
2023-03-14T12:20:17.046Z,98803.22
2023-03-14T12:23:44.065Z,98809.78
2023-03-14T12:27:10.199Z,98808.34
2023-03-14T12:30:33.591Z,98793.78
2023-03-14T12:34:04.218Z,98794.13
2023-03-14T12:37:31.957Z,98795.38
2023-03-14T12:41:01.703Z,98805.84
2023-03-14T12:44:44.455Z,98804.50
2023-03-14T12:48:12.802Z,98819.97
2023-03-14T12:51:38.055Z,98817.88
2023-03-14T12:55:04.519Z,98805.94
2023-03-14T12:58:33.088Z,98796.25
2023-03-14T13:01:59.087Z,98794.38
2023-03-14T13:05:25.946Z,98795.75
2023-03-14T13:08:48.398Z,98779.94
2023-03-14T13:12:13.197Z,98777.50
2023-03-14T13:15:40.066Z,98776.53
2023-03-14T13:19:13.503Z,98764.47
2023-03-14T13:22:38.021Z,98761.84
2023-03-14T13:26:01.436Z,98753.84
2023-03-14T13:29:25.174Z,98755.09
2023-03-14T13:32:48.773Z,98756.16
2023-03-14T13:36:12.455Z,98751.38
2023-03-14T13:39:34.299Z,98746.25
2023-03-14T13:43:18.857Z,98746.91
2023-03-14T13:46:40.488Z,98735.41
2023-03-14T13:50:02.334Z,98736.25
2023-03-14T13:53:26.562Z,98729.66
2023-03-14T13:56:48.994Z,98748.16
2023-03-14T14:00:20.580Z,98734.63
2023-03-14T14:03:44.566Z,98736.66
2023-03-14T14:07:09.988Z,98744.06
2023-03-14T14:10:39.645Z,98735.00
2023-03-14T14:14:02.157Z,98737.06
2023-03-14T14:17:29.448Z,98733.59
2023-03-14T14:20:52.473Z,98730.69
2023-03-14T14:24:15.781Z,98734.00
2023-03-14T14:27:42.297Z,98725.56
2023-03-14T14:31:07.156Z,98728.88
2023-03-14T14:34:28.541Z,98721.50
2023-03-14T14:37:50.736Z,98713.44
2023-03-14T14:41:13.801Z,98717.59
2023-03-14T14:44:38.290Z,98721.69
2023-03-14T14:48:06.856Z,98721.91
2023-03-14T14:51:33.699Z,98708.53
2023-03-14T14:55:00.250Z,98704.81
2023-03-14T14:58:26.470Z,98697.81
2023-03-14T15:01:51.370Z,98701.09
2023-03-14T15:05:15.039Z,98706.69
2023-03-14T15:08:36.353Z,98714.91
2023-03-14T15:11:57.405Z,98727.66
2023-03-14T15:15:19.710Z,98729.53
2023-03-14T15:18:43.962Z,98728.28
2023-03-14T15:22:07.718Z,98747.41
2023-03-14T15:25:51.520Z,98744.28
2023-03-14T15:29:13.331Z,98754.38
2023-03-14T15:32:34.912Z,98836.16
2023-03-14T15:35:58.910Z,98951.72
2023-03-14T15:39:20.273Z,99004.56
2023-03-14T15:42:42.297Z,99026.84
2023-03-14T15:46:03.672Z,99082.44
2023-03-14T15:49:25.613Z,99121.34
2023-03-14T15:52:48.492Z,99147.22
2023-03-14T15:56:14.334Z,99179.94
2023-03-14T15:59:36.420Z,99194.13
2023-03-14T16:02:58.215Z,99217.19
2023-03-14T16:06:19.335Z,99223.13
2023-03-14T16:09:42.412Z,99241.91
2023-03-14T16:13:05.401Z,99246.00
2023-03-14T16:16:26.942Z,99250.25
2023-03-14T16:19:49.001Z,99267.16
2023-03-14T16:23:10.698Z,99294.59
2023-03-14T16:26:35.176Z,99311.53
2023-03-14T16:29:56.725Z,99314.78
2023-03-14T16:33:19.902Z,99340.41
2023-03-14T16:36:41.669Z,99346.97
2023-03-14T16:40:13.080Z,99370.16
2023-03-14T16:43:38.194Z,99386.03
2023-03-14T16:46:59.827Z,99419.34
2023-03-14T16:50:21.066Z,99434.97
2023-03-14T16:53:43.081Z,99459.72
2023-03-14T16:57:04.857Z,99478.94
2023-03-14T17:00:27.709Z,99504.63
2023-03-14T17:03:51.703Z,99514.47
2023-03-14T17:07:13.304Z,99508.84
2023-03-14T17:10:36.421Z,99515.72
2023-03-14T17:13:58.964Z,99532.59
2023-03-14T17:17:22.076Z,99538.91
2023-03-14T17:20:43.473Z,99550.03
2023-03-14T17:24:05.673Z,99554.88
2023-03-14T17:27:27.126Z,99567.78
2023-03-14T17:30:48.496Z,99598.38
2023-03-14T17:34:11.903Z,99619.84
2023-03-14T17:37:33.414Z,99628.03
2023-03-14T17:40:55.415Z,99620.34
2023-03-14T17:44:16.785Z,99631.28
2023-03-14T17:47:38.561Z,99643.25
2023-03-14T17:51:02.412Z,99673.75
2023-03-14T17:54:23.936Z,99688.25
2023-03-14T17:57:45.302Z,99692.69
2023-03-14T18:01:11.845Z,99713.06
2023-03-14T18:04:34.125Z,99715.41
2023-03-14T18:07:58.163Z,99733.47
2023-03-14T18:11:19.576Z,99731.78
2023-03-14T18:14:44.257Z,99738.09
2023-03-14T18:18:05.940Z,99756.59
2023-03-14T18:21:29.733Z,99762.91
2023-03-14T18:24:53.165Z,99776.78
2023-03-14T18:28:14.738Z,99782.66
2023-03-14T18:31:36.590Z,99795.00
2023-03-14T18:34:58.329Z,99811.72
2023-03-14T18:38:20.091Z,99816.75
2023-03-14T18:41:43.203Z,99806.84
2023-03-14T18:45:05.277Z,99828.84
2023-03-14T18:48:27.326Z,99839.56
2023-03-14T18:51:49.010Z,99857.75
2023-03-14T18:55:11.122Z,99852.94
2023-03-14T18:58:33.924Z,99863.38
2023-03-14T19:01:56.000Z,99866.00
2023-03-14T19:05:17.458Z,99866.41
2023-03-14T19:08:40.167Z,99886.13
2023-03-14T19:12:01.877Z,99893.59
2023-03-14T19:15:24.886Z,99910.94
2023-03-14T19:18:46.075Z,99920.50
2023-03-14T19:22:07.961Z,99929.25
2023-03-14T19:25:29.820Z,99934.31
2023-03-14T19:28:52.779Z,99948.28
2023-03-14T19:32:19.441Z,99950.72
2023-03-14T19:35:40.815Z,99951.50
2023-03-14T19:39:04.023Z,99949.97
2023-03-14T19:42:25.453Z,99966.22
2023-03-14T19:45:47.544Z,99978.88
2023-03-14T19:49:11.559Z,99984.94
2023-03-14T19:52:33.020Z,99987.69
2023-03-14T19:55:54.881Z,99999.38
2023-03-14T19:59:16.634Z,100007.28
2023-03-14T20:02:37.807Z,100012.53
2023-03-14T20:06:05.292Z,100013.47
2023-03-14T20:09:26.816Z,100024.94
2023-03-14T20:12:48.576Z,100032.09
2023-03-14T20:16:11.491Z,100044.47
2023-03-14T20:19:32.843Z,100046.28
2023-03-14T20:22:55.416Z,100055.56
2023-03-14T20:26:17.120Z,100067.25
2023-03-14T20:29:39.198Z,100075.22
2023-03-14T20:33:04.400Z,100097.28
2023-03-14T20:36:25.708Z,100104.84
2023-03-14T20:39:48.856Z,100111.97
2023-03-14T20:43:10.482Z,100123.91
2023-03-14T20:46:32.369Z,100129.84
2023-03-14T20:49:54.194Z,100142.13
2023-03-14T20:53:15.623Z,100149.09
2023-03-14T20:56:38.470Z,100161.41
2023-03-14T21:00:00.303Z,100168.25
2023-03-14T21:03:23.098Z,100173.22
2023-03-14T21:06:45.952Z,100176.44
2023-03-14T21:10:09.913Z,100191.56
2023-03-14T21:13:33.535Z,100190.88
2023-03-14T21:16:57.085Z,100190.88
2023-03-14T21:20:18.891Z,100200.47
2023-03-14T21:23:41.178Z,100196.25
2023-03-14T21:27:03.012Z,100209.97
2023-03-14T21:30:26.668Z,100202.06
2023-03-14T21:33:48.942Z,100210.13
2023-03-14T21:37:11.265Z,100218.94
2023-03-14T21:40:33.075Z,100222.63
2023-03-14T21:43:54.260Z,100236.69
2023-03-14T21:47:17.811Z,100238.66
2023-03-14T21:50:38.927Z,100245.88
2023-03-14T21:54:00.642Z,100249.63
2023-03-14T21:57:29.644Z,100255.03
2023-03-14T22:00:51.649Z,100257.28
2023-03-14T22:04:14.230Z,100278.41
2023-03-14T22:07:35.849Z,100281.97
2023-03-14T22:10:58.027Z,100292.47
2023-03-14T22:14:19.769Z,100294.34
2023-03-14T22:17:42.311Z,100287.56
2023-03-14T22:21:05.537Z,100304.16
2023-03-14T22:24:27.373Z,100310.41
2023-03-14T22:27:49.026Z,100312.47
2023-03-14T22:31:10.504Z,100315.78
2023-03-14T22:34:32.384Z,100318.66
2023-03-14T22:37:55.012Z,100322.31
2023-03-14T22:41:21.421Z,100336.03
2023-03-14T22:44:42.906Z,100340.25
2023-03-14T22:48:05.088Z,100344.31
2023-03-14T22:51:26.375Z,100344.50
2023-03-14T22:54:49.626Z,100350.50
2023-03-14T22:58:11.912Z,100356.63
2023-03-14T23:01:33.281Z,100366.28
2023-03-14T23:04:56.048Z,100358.75
2023-03-14T23:08:18.190Z,100364.06
2023-03-14T23:11:41.695Z,100372.97
2023-03-14T23:15:06.086Z,100374.69
2023-03-14T23:18:28.220Z,100381.53
2023-03-14T23:21:49.878Z,100389.50
2023-03-14T23:25:11.941Z,100400.19
2023-03-14T23:28:34.853Z,100408.81
2023-03-14T23:31:56.362Z,100412.13
2023-03-14T23:35:17.580Z,100412.25
2023-03-14T23:38:39.248Z,100420.06
2023-03-14T23:42:00.970Z,100423.53
2023-03-14T23:45:24.120Z,100430.59
2023-03-14T23:48:47.431Z,100426.97
2023-03-14T23:52:09.049Z,100447.69
2023-03-14T23:55:30.572Z,100451.94
2023-03-14T23:58:53.928Z,100454.47
